地図

経路データ

SID SEASON NUMBER BASIN SUBBASIN NAME ISO_TIME NATURE LAT LON WMO_WIND WMO_PRES WMO_AGENCY TRACK_TYPE DIST2LAND LANDFALL IFLAG USA_AGENCY USA_ATCF_ID USA_LAT USA_LON USA_RECORD USA_STATUS USA_WIND USA_PRES USA_SSHS USA_R34_NE USA_R34_SE USA_R34_SW USA_R34_NW USA_R50_NE USA_R50_SE USA_R50_SW USA_R50_NW USA_R64_NE USA_R64_SE USA_R64_SW USA_R64_NW USA_POCI USA_ROCI USA_RMW USA_EYE TOKYO_LAT TOKYO_LON TOKYO_GRADE TOKYO_WIND TOKYO_PRES TOKYO_R50_DIR TOKYO_R50_LONG TOKYO_R50_SHORT TOKYO_R30_DIR TOKYO_R30_LONG TOKYO_R30_SHORT TOKYO_LAND CMA_LAT CMA_LON CMA_CAT CMA_WIND CMA_PRES HKO_LAT HKO_LON HKO_CAT HKO_WIND HKO_PRES NEWDELHI_LAT NEWDELHI_LON NEWDELHI_GRADE NEWDELHI_WIND NEWDELHI_PRES NEWDELHI_CI NEWDELHI_DP NEWDELHI_POCI REUNION_LAT REUNION_LON REUNION_TYPE REUNION_WIND REUNION_PRES REUNION_TNUM REUNION_CI REUNION_RMW REUNION_R34_NE REUNION_R34_SE REUNION_R34_SW REUNION_R34_NW REUNION_R50_NE REUNION_R50_SE REUNION_R50_SW REUNION_R50_NW REUNION_R64_NE REUNION_R64_SE REUNION_R64_SW REUNION_R64_NW BOM_LAT BOM_LON BOM_TYPE BOM_WIND BOM_PRES BOM_TNUM BOM_CI BOM_RMW BOM_R34_NE BOM_R34_SE BOM_R34_SW BOM_R34_NW BOM_R50_NE BOM_R50_SE BOM_R50_SW BOM_R50_NW BOM_R64_NE BOM_R64_SE BOM_R64_SW BOM_R64_NW BOM_ROCI BOM_POCI BOM_EYE BOM_POS_METHOD BOM_PRES_METHOD NADI_LAT NADI_LON NADI_CAT NADI_WIND NADI_PRES WELLINGTON_LAT WELLINGTON_LON WELLINGTON_WIND WELLINGTON_PRES DS824_LAT DS824_LON DS824_STAGE DS824_WIND DS824_PRES TD9636_LAT TD9636_LON TD9636_STAGE TD9636_WIND TD9636_PRES TD9635_LAT TD9635_LON TD9635_WIND TD9635_PRES TD9635_ROCI NEUMANN_LAT NEUMANN_LON NEUMANN_CLASS NEUMANN_WIND NEUMANN_PRES MLC_LAT MLC_LON MLC_CLASS MLC_WIND MLC_PRES USA_GUST BOM_GUST BOM_GUST_PER REUNION_GUST REUNION_GUST_PER USA_SEAHGT USA_SEARAD_NE USA_SEARAD_SE USA_SEARAD_SW USA_SEARAD_NW STORM_SPEED STORM_DIR
2020265N24134 2020 31 WP MM DOLPHIN 2020-09-20 12:00:00 NR 23.9000 133.900 PROVISIONAL 853 842 O_____________ tcvitals WP142020 23.9000 133.900 35 1003 0 20 40 1008 145 40 1 0
2020265N24134 2020 31 WP MM DOLPHIN 2020-09-20 15:00:00 NR 23.9601 133.922 PROVISIONAL 842 832 P_____________ WP142020 23.9601 133.922 35 1000 0 35 50 1007 160 45 2 8
2020265N24134 2020 31 WP MM DOLPHIN 2020-09-20 18:00:00 NR 24.1000 133.900 PROVISIONAL 832 797 O_____________ tcvitals WP142020 24.1000 133.900 35 997 0 50 60 20 35 1006 175 50 4 349
2020265N24134 2020 31 WP MM DOLPHIN 2020-09-20 21:00:00 NR 24.3698 133.833 PROVISIONAL 797 770 P_____________ WP142020 24.3698 133.833 40 995 0 95 90 22 45 1006 187 52 6 1
2020265N24134 2020 31 WP MM DOLPHIN 2020-09-21 00:00:00 NR 24.7000 133.900 PROVISIONAL 770 757 O_____________ tcvitals WP142020 24.7000 133.900 45 993 0 140 120 25 55 1007 200 55 8 35
2020265N24134 2020 31 WP MM DOLPHIN 2020-09-21 03:00:00 NR 25.0156 134.334 PROVISIONAL 757 747 P_____________ WP142020 25.0156 134.334 45 993 0 97 105 22 42 1005 185 40 10 54
2020265N24134 2020 31 WP MM DOLPHIN 2020-09-21 06:00:00 NR 25.3000 134.800 PROVISIONAL 752 738 O_____________ tcvitals WP142020 25.3000 134.800 45 993 0 55 90 20 30 1004 170 25 8 49
2020265N24134 2020 31 WP MM DOLPHIN 2020-09-21 09:00:00 NR 25.5073 134.960 PROVISIONAL 744 725 P_____________ WP142020 25.5073 134.960 45 993 0 72 100 22 55 1005 215 22 4 24
2020265N24134 2020 31 WP MM DOLPHIN 2020-09-21 12:00:00 NR 25.7000 135.000 PROVISIONAL 725 707 O_____________ tcvitals WP142020 25.7000 135.000 45 994 0 90 110 25 80 1007 260 20 4 13
2020265N24134 2020 31 WP MM DOLPHIN 2020-09-21 15:00:00 NR 25.9200 135.065 PROVISIONAL 711 682 P_____________ WP142020 25.9200 135.065 45 992 0 90 92 32 70 1005 220 25 5 10
2020265N24134 2020 31 WP MM DOLPHIN 2020-09-21 18:00:00 NR 26.2000 135.100 PROVISIONAL 682 654 O_____________ tcvitals WP142020 26.2000 135.100 45 991 0 90 75 40 60 1004 180 30 7 1
2020265N24134 2020 31 WP MM DOLPHIN 2020-09-21 21:00:00 NR 26.5700 135.078 PROVISIONAL 645 608 P_____________ WP142020 26.5700 135.078 48 990 0 100 80 45 67 1005 190 32 8 1
2020265N24134 2020 31 WP MM DOLPHIN 2020-09-22 00:00:00 NR 27.0000 135.100 PROVISIONAL 608 578 O_____________ tcvitals WP142020 27.0000 135.100 51 989 0 110 85 50 75 1006 200 35 9 10
2020265N24134 2020 31 WP MM DOLPHIN 2020-09-22 03:00:00 NR 27.4049 135.248 PROVISIONAL 578 555 P_____________ WP142020 27.4049 135.248 55 984 0 112 90 57 75 1005 190 27 10 22
2020265N24134 2020 31 WP MM DOLPHIN 2020-09-22 06:00:00 NR 27.9000 135.500 PROVISIONAL 555 532 O_____________ tcvitals WP142020 27.9000 135.500 60 980 0 115 95 65 75 1004 180 20 13 25
2020265N24134 2020 31 WP MM DOLPHIN 2020-09-22 09:00:00 NR 28.6078 135.879 PROVISIONAL 533 458 P_____________ WP142020 28.6078 135.879 57 982 0 115 92 67 77 1004 180 20 15 24
2020265N24134 2020 31 WP MM DOLPHIN 2020-09-22 12:00:00 NR 29.3000 136.200 PROVISIONAL 458 414 O_____________ tcvitals WP142020 29.3000 136.200 54 984 0 115 90 70 80 1004 180 20 12 14
2020265N24134 2020 31 WP MM DOLPHIN 2020-09-22 15:00:00 NR 29.7372 136.202 PROVISIONAL 414 370 P_____________ WP142020 29.7372 136.202 54 984 0 107 95 70 77 1004 177 25 8 1
2020265N24134 2020 31 WP MM DOLPHIN 2020-09-22 18:00:00 NR 30.1000 136.200 PROVISIONAL 370 328 O_____________ tcvitals WP142020 30.1000 136.200 54 984 0 100 100 70 75 1005 175 30 8 14
2020265N24134 2020 31 WP MM DOLPHIN 2020-09-22 21:00:00 NR 30.5343 136.423 PROVISIONAL 328 286 P_____________ WP142020 30.5343 136.423 52 986 0 105 97 75 77 1005 172 32 11 34
2020265N24134 2020 31 WP MM DOLPHIN 2020-09-23 00:00:00 NR 31.0000 136.900 PROVISIONAL 286 265 O_____________ tcvitals WP142020 31.0000 136.900 51 988 0 110 95 80 80 1006 170 35 14 46
2020265N24134 2020 31 WP MM DOLPHIN 2020-09-23 03:00:00 NR 31.5219 137.622 PROVISIONAL 270 268 P_____________ WP142020 31.5219 137.622 51 987 0 125 112 90 92 1006 170 35 18 55
2020265N24134 2020 31 WP MM DOLPHIN 2020-09-23 06:00:00 NR 32.0000 138.600 PROVISIONAL 290 266 O_____________ tcvitals WP142020 32.0000 138.600 51 986 0 140 130 100 105 1006 170 35 20 67
2020265N24134 2020 31 WP MM DOLPHIN 2020-09-23 09:00:00 NR 32.3020 139.824 PROVISIONAL 272 272 P_____________ WP142020 32.3020 139.824 52 984 0 145 120 100 120 1006 170 35 21 74
2020265N24134 2020 31 WP MM DOLPHIN 2020-09-23 12:00:00 NR 32.6000 141.000 PROVISIONAL 275 262 O_____________ tcvitals WP142020 32.6000 141.000 54 983 0 150 110 100 135 1006 170 35 20 63
2020265N24134 2020 31 WP MM DOLPHIN 2020-09-23 15:00:00 NR 33.1966 141.931 PROVISIONAL 262 254 P_____________ WP142020 33.1966 141.931 49 984 0 187 125 92 137 1006 185 40 15 50
2020265N24134 2020 31 WP MM DOLPHIN 2020-09-23 18:00:00 NR 33.6000 142.400 PROVISIONAL 255 251 O_____________ tcvitals WP142020 33.6000 142.400 45 986 0 225 140 85 140 1006 200 45 2 45
2020265N24134 2020 31 WP MM DOLPHIN 2020-09-23 21:00:00 NR 33.3402 142.101 PROVISIONAL 262 257 P_____________ WP142020 33.3402 142.101 40 989 0 175 122 110 120 1006 185 42 9 220
2020265N24134 2020 31 WP MM DOLPHIN 2020-09-24 00:00:00 NR 32.9000 141.700 PROVISIONAL 277 277 O_____________ tcvitals WP142020 32.9000 141.700 35 992 0 126 105 135 100 1006 170 40 6 192
2020265N24134 2020 31 WP MM DOLPHIN 2020-09-24 03:00:00 NR 32.7553 141.961 PROVISIONAL 303 303 P_____________ WP142020 32.7553 141.961 35 991 0 118 105 145 122 1006 170 40 6 109
2020265N24134 2020 31 WP MM DOLPHIN 2020-09-24 06:00:00 NR 32.7000 142.400 PROVISIONAL 334 334 O_____________ tcvitals WP142020 32.7000 142.400 35 990 0 110 105 155 145 1006 170 40 7 101
2020265N24134 2020 31 WP MM DOLPHIN 2020-09-24 09:00:00 NR 32.6301 142.742 PROVISIONAL 358 358 P_____________ WP142020 32.6301 142.742 35 991 0 122 90 117 155 1006 170 40 4 103
2020265N24134 2020 31 WP MM DOLPHIN 2020-09-24 12:00:00 NR 32.6000 142.900 PROVISIONAL 370 364 O_____________ tcvitals WP142020 32.6000 142.900 35 992 0 135 75 80 165 1006 170 40 0 0
2020265N24134 2020 31 WP MM DOLPHIN 2020-09-24 15:00:00 NR 32.5856 142.737 PROVISIONAL 358 334 P_____________ WP142020 32.5856 142.737 -1 4 278
2020265N24134 2020 31 WP MM DOLPHIN 2020-09-24 18:00:00 NR 32.6644 142.372 PROVISIONAL 334 295 O_____________ tcvitals WP142020 32.6644 142.372 -1 7 294
2020265N24134 2020 31 WP MM DOLPHIN 2020-09-24 21:00:00 NR 32.8833 141.955 PROVISIONAL 295 239 P_____________ WP142020 32.8833 141.955 -1 9 306
2020265N24134 2020 31 WP MM DOLPHIN 2020-09-25 00:00:00 NR 33.1847 141.523 PROVISIONAL 239 O_____________ tcvitals WP142020 33.1846 141.523 -1 9 310

デジタル台風データ・検索

IBTrACS Databaseについて

本データベースは、米国NOAAが公開する1842年以降の世界の熱帯低気圧のベストトラックデータアーカイブInternational Best Track Archive for Climate Stewardship (IBTrACS)を、ウェブで閲覧しやすい形式に変換したものです。

最終更新日:2021-10-08